Time;durP1;ratioP1;P1;durP2;ratioP2;P2;SDS_P1;SDS_P2;PMS_P1;PMS_P2;Temp;Humidity;BMP_temperature;BMP_pressure;BME280_temperature;BME280_humidity;BME280_pressure;Samples;Min_cycle;Max_cycle;Signal;HPM_P1;HPM_P2
2022/05/04 00:00:32;;;;;;;7.72;6.40;;;;;;;12.55;100.00;101146.22;4939126;29;20346;-76
2022/05/04 00:03:18;;;;;;;7.88;6.45;;;;;;;12.47;100.00;101141.13;4939692;29;20047;-75
2022/05/04 00:06:04;;;;;;;8.15;6.65;;;;;;;12.47;100.00;101142.88;4939321;29;20028;-76
2022/05/04 00:08:50;;;;;;;8.32;7.00;;;;;;;12.28;100.00;101137.09;4938455;29;20035;-76
2022/05/04 00:11:36;;;;;;;10.10;6.90;;;;;;;12.37;100.00;101139.53;4939210;29;20016;-76
2022/05/04 00:14:25;;;;;;;9.60;6.65;;;;;;;12.45;100.00;101142.00;4952267;28;20107;-76
2022/05/04 00:17:11;;;;;;;8.57;6.28;;;;;;;12.32;100.00;101138.75;4938884;29;20038;-78
2022/05/04 00:19:57;;;;;;;8.50;6.38;;;;;;;12.22;100.00;101134.56;4951689;29;20111;-75
2022/05/04 00:22:43;;;;;;;7.35;5.63;;;;;;;12.67;100.00;101138.09;4938373;29;20364;-76
2022/05/04 00:25:29;;;;;;;7.03;6.05;;;;;;;12.73;100.00;101133.59;4939549;29;20028;-75
2022/05/04 00:28:15;;;;;;;7.22;5.28;;;;;;;12.62;100.00;101137.34;4939466;29;20071;-76
2022/05/04 00:31:01;;;;;;;7.15;5.40;;;;;;;12.79;100.00;101138.75;4938711;29;20067;-76
2022/05/04 00:33:47;;;;;;;7.40;5.35;;;;;;;12.45;100.00;101137.66;4939274;29;20050;-77
2022/05/04 00:36:33;;;;;;;8.52;4.80;;;;;;;12.78;100.00;101141.41;4938493;29;20038;-75
2022/05/04 00:39:19;;;;;;;5.05;4.55;;;;;;;12.79;100.00;101137.88;4938701;29;20457;-76
2022/05/04 00:42:19;;;;;;;5.60;4.60;;;;;;;12.78;100.00;101139.63;4937865;29;20032;-76
2022/05/04 00:45:05;;;;;;;7.20;4.57;;;;;;;12.55;100.00;101144.47;4938998;29;20032;-76
2022/05/04 00:47:51;;;;;;;5.35;4.65;;;;;;;12.38;100.00;101138.63;4937733;29;20035;-75
2022/05/04 00:50:37;;;;;;;6.53;4.82;;;;;;;12.38;100.00;101138.63;4937650;29;20016;-75
2022/05/04 00:53:23;;;;;;;6.32;4.40;;;;;;;12.46;100.00;101136.75;4937281;29;20035;-76
2022/05/04 00:56:09;;;;;;;5.93;4.63;;;;;;;12.21;100.00;101135.44;4937629;29;20023;-75
2022/05/04 00:58:55;;;;;;;5.15;4.40;;;;;;;12.70;100.00;101135.44;4951314;29;20452;-76
2022/05/04 01:01:42;;;;;;;5.93;4.57;;;;;;;12.59;100.00;101142.66;4938472;29;20027;-75
2022/05/04 01:04:28;;;;;;;5.53;4.25;;;;;;;12.46;100.00;101144.63;4923912;29;20024;-76
2022/05/04 01:07:14;;;;;;;6.25;4.32;;;;;;;12.74;100.00;101145.84;4936802;29;20483;-75
2022/05/04 01:10:00;;;;;;;5.88;4.05;;;;;;;12.69;100.00;101145.06;4938755;29;20409;-76
2022/05/04 01:12:53;;;;;;;5.55;4.07;;;;;;;12.70;100.00;101144.16;4950764;29;20372;-76
2022/05/04 01:15:39;;;;;;;5.38;4.13;;;;;;;12.96;100.00;101139.28;4937052;29;20040;-75
2022/05/04 01:18:25;;;;;;;7.35;4.32;;;;;;;13.00;100.00;101142.72;4950472;29;20031;-76
2022/05/04 01:21:10;;;;;;;5.38;4.30;;;;;;;12.46;100.00;101139.38;4951284;29;20416;-76
2022/05/04 01:23:57;;;;;;;4.95;4.05;;;;;;;12.53;100.00;101142.75;4937237;29;20024;-75
2022/05/04 01:26:42;;;;;;;6.07;3.92;;;;;;;12.70;100.00;101133.66;4936885;29;20035;-76
2022/05/04 01:29:28;;;;;;;5.22;4.05;;;;;;;12.91;100.00;101138.47;4938022;29;20035;-76
2022/05/04 01:32:14;;;;;;;5.78;4.18;;;;;;;13.10;100.00;101141.66;4938332;29;20410;-75
2022/05/04 01:35:00;;;;;;;4.75;4.10;;;;;;;13.12;100.00;101143.34;4936472;29;20483;-76
2022/05/04 01:37:45;;;;;;;5.72;4.15;;;;;;;13.04;100.00;101133.88;4937546;29;20353;-76
2022/05/04 01:40:31;;;;;;;6.35;4.18;;;;;;;13.05;100.00;101135.59;4938010;29;20039;-75
2022/05/04 01:43:17;;;;;;;5.35;4.22;;;;;;;13.03;100.00;101132.16;4937425;29;20042;-75
2022/05/04 01:46:03;;;;;;;4.72;3.95;;;;;;;13.10;100.00;101136.41;4936954;29;20101;-75
2022/05/04 01:48:49;;;;;;;5.18;4.20;;;;;;;13.07;100.00;101132.03;4935300;29;20095;-76
2022/05/04 01:51:35;;;;;;;4.80;4.10;;;;;;;13.00;100.00;101124.31;4937358;29;20023;-75
2022/05/04 01:54:20;;;;;;;6.78;4.38;;;;;;;12.32;100.00;101122.13;4950387;28;20031;-75
2022/05/04 01:57:06;;;;;;;5.93;4.15;;;;;;;12.89;100.00;101119.25;4950149;29;20027;-75
2022/05/04 01:59:52;;;;;;;4.63;3.83;;;;;;;12.72;100.00;101118.72;4935965;29;20023;-75
2022/05/04 02:02:38;;;;;;;5.28;4.40;;;;;;;12.62;100.00;101116.31;4937661;29;20473;-76
2022/05/04 02:05:26;;;;;;;5.32;4.22;;;;;;;12.86;100.00;101121.09;4937311;29;20035;-76
2022/05/04 02:08:12;;;;;;;4.63;4.22;;;;;;;12.56;100.00;101122.53;4937516;29;20063;-74
2022/05/04 02:10:58;;;;;;;6.68;5.00;;;;;;;12.96;100.00;101128.75;4937429;29;20032;-76
2022/05/04 02:13:44;;;;;;;5.70;4.55;;;;;;;13.01;100.00;101132.19;4935253;29;20055;-77
2022/05/04 02:16:30;;;;;;;5.88;4.28;;;;;;;12.72;100.00;101133.63;4937451;29;20118;-76
2022/05/04 02:19:16;;;;;;;6.18;4.50;;;;;;;12.77;100.00;101135.28;4936802;29;20365;-77
2022/05/04 02:22:02;;;;;;;7.22;4.30;;;;;;;12.67;100.00;101130.22;4937167;29;20028;-75
2022/05/04 02:24:48;;;;;;;4.72;4.20;;;;;;;12.67;100.00;101133.72;4936794;29;20066;-76
2022/05/04 02:27:33;;;;;;;5.47;4.18;;;;;;;12.91;100.00;101127.94;4937254;29;20024;-76
2022/05/04 02:30:19;;;;;;;8.25;4.32;;;;;;;13.03;100.00;101132.16;4935681;29;20023;-76
2022/05/04 02:33:05;;;;;;;5.30;4.57;;;;;;;12.71;100.00;101138.03;4949874;29;20034;-76
2022/05/04 02:38:55;;;;;;;5.35;4.43;;;;;;;12.84;100.00;101138.63;4937675;29;20110;-76
2022/05/04 02:41:41;;;;;;;7.70;4.55;;;;;;;12.83;100.00;101137.75;4948246;29;20038;-76
2022/05/04 02:44:26;;;;;;;5.85;4.68;;;;;;;12.92;100.00;101140.22;4936252;29;20027;-75
2022/05/04 02:47:12;;;;;;;5.18;4.50;;;;;;;12.91;100.00;101137.63;4935690;29;20030;-76
2022/05/04 02:49:58;;;;;;;5.15;4.40;;;;;;;12.93;100.00;101141.97;4935156;29;20026;-75
2022/05/04 02:52:43;;;;;;;7.43;4.68;;;;;;;12.90;100.00;101134.13;4936102;29;20454;-77
2022/05/04 02:55:29;;;;;;;5.07;3.95;;;;;;;12.82;100.00;101132.56;4936102;29;20031;-76
2022/05/04 02:58:15;;;;;;;8.85;4.30;;;;;;;12.99;100.00;101131.31;4949436;29;20027;-76
2022/05/04 03:04:32;;;;;;;6.20;4.63;;;;;;;13.18;100.00;101137.09;4939211;29;20024;-77
2022/05/04 03:07:18;;;;;;;5.22;4.30;;;;;;;12.76;100.00;101138.81;4940799;29;20023;-75
2022/05/04 03:10:04;;;;;;;5.75;4.13;;;;;;;12.34;100.00;101144.00;4940672;29;20027;-76
2022/05/04 03:12:50;;;;;;;8.20;4.65;;;;;;;12.23;100.00;101132.81;4939834;29;20090;-76
2022/05/04 03:15:36;;;;;;;5.53;3.80;;;;;;;12.06;100.00;101138.34;4939146;29;20057;-77
2022/05/04 03:18:21;;;;;;;6.43;4.32;;;;;;;12.10;100.00;101136.53;4940012;29;20372;-76
2022/05/04 03:21:09;;;;;;;5.15;4.20;;;;;;;11.72;100.00;101139.78;4940484;29;20042;-76
2022/05/04 03:23:55;;;;;;;5.55;4.07;;;;;;;11.86;100.00;101136.94;4939963;29;20064;-76
2022/05/04 03:26:42;;;;;;;5.65;4.40;;;;;;;11.91;100.00;101140.34;4939420;29;20076;-77
2022/05/04 03:29:28;;;;;;;4.78;4.25;;;;;;;11.60;100.00;101146.91;4939966;29;20357;-77
2022/05/04 03:32:14;;;;;;;5.30;3.97;;;;;;;11.77;100.00;101148.44;4940523;29;20028;-77
2022/05/04 03:35:00;;;;;;;6.75;4.13;;;;;;;11.84;100.00;101143.97;4940037;29;20041;-77
2022/05/04 03:37:46;;;;;;;5.30;3.90;;;;;;;11.98;100.00;101150.72;4940473;29;20035;-76
2022/05/04 03:40:31;;;;;;;8.20;4.32;;;;;;;12.08;100.00;101149.69;4939686;29;20461;-77
2022/05/04 03:43:17;;;;;;;5.43;4.05;;;;;;;12.12;100.00;101158.38;4938885;29;20457;-76
2022/05/04 03:46:13;;;;;;;9.13;6.85;;;;;;;12.15;100.00;101158.34;4940246;29;20045;-76
2022/05/04 03:48:58;;;;;;;7.80;4.78;;;;;;;12.29;100.00;101167.72;4939763;29;20377;-77
2022/05/04 03:51:45;;;;;;;7.00;4.30;;;;;;;12.18;100.00;101164.38;4939605;29;20023;-76
2022/05/04 03:54:30;;;;;;;4.90;3.90;;;;;;;12.33;100.00;101161.50;4938973;29;20040;-76
2022/05/04 03:57:16;;;;;;;4.60;4.03;;;;;;;12.27;100.00;101153.75;4951505;29;20167;-77
2022/05/04 04:00:03;;;;;;;5.82;3.92;;;;;;;12.26;100.00;101167.75;4939200;29;20059;-77
2022/05/04 04:02:49;;;;;;;7.93;4.40;;;;;;;12.57;100.00;101165.44;4939816;29;20028;-76
2022/05/04 04:05:35;;;;;;;6.18;3.95;;;;;;;12.63;100.00;101168.84;4938608;29;20123;-77
2022/05/04 04:08:21;;;;;;;4.97;4.13;;;;;;;12.85;100.00;101170.16;4938902;29;20031;-76
2022/05/04 04:11:07;;;;;;;7.38;4.25;;;;;;;12.69;100.00;101176.63;4939528;29;20416;-77
2022/05/04 04:13:53;;;;;;;6.50;3.92;;;;;;;12.73;100.00;101186.19;4939406;29;20139;-77
2022/05/04 04:16:41;;;;;;;6.18;4.13;;;;;;;12.76;100.00;101186.13;4939402;29;20464;-77
2022/05/04 04:19:27;;;;;;;7.20;4.57;;;;;;;12.81;100.00;101180.75;4939170;29;20086;-75
2022/05/04 04:22:13;;;;;;;6.80;3.83;;;;;;;12.84;100.00;101183.34;4939409;29;20039;-76
2022/05/04 04:24:58;;;;;;;5.78;4.57;;;;;;;12.94;100.00;101190.19;4938450;29;20524;-77
2022/05/04 04:27:44;;;;;;;9.68;4.10;;;;;;;12.68;100.00;101182.78;4951772;29;20047;-78
2022/05/04 04:30:34;;;;;;;5.20;4.18;;;;;;;12.68;100.00;101190.66;4938926;29;20070;-76
2022/05/04 04:33:29;;;;;;;5.57;4.32;;;;;;;12.65;100.00;101185.47;4939232;29;20039;-76
2022/05/04 04:36:14;;;;;;;6.55;4.10;;;;;;;12.86;100.00;101194.72;4937903;29;20028;-76
2022/05/04 04:39:00;;;;;;;6.57;4.40;;;;;;;12.81;100.00;101194.78;4939543;29;20055;-78
2022/05/04 04:41:46;;;;;;;7.03;3.90;;;;;;;12.90;100.00;101194.59;4937801;29;20023;-77
2022/05/04 04:44:32;;;;;;;5.78;4.32;;;;;;;12.87;100.00;101192.03;4938862;29;20028;-76
2022/05/04 04:47:18;;;;;;;6.68;4.40;;;;;;;12.93;100.00;101194.56;4951393;29;20051;-76
2022/05/04 04:50:04;;;;;;;5.18;3.80;;;;;;;12.91;100.00;101195.47;4937498;29;20032;-77
2022/05/04 04:52:49;;;;;;;7.78;4.97;;;;;;;12.70;100.00;101198.53;4937944;29;20031;-77
2022/05/04 04:55:35;;;;;;;8.38;4.97;;;;;;;12.65;100.00;101209.13;4938037;29;20453;-76
2022/05/04 04:58:21;;;;;;;7.10;4.15;;;;;;;12.75;100.00;101207.19;4937897;29;20091;-76
2022/05/04 05:01:07;;;;;;;6.10;4.25;;;;;;;12.96;100.00;101212.91;4939122;29;20023;-76
2022/05/04 05:03:52;;;;;;;10.02;5.10;;;;;;;12.92;100.00;101213.88;4937927;29;20032;-76
2022/05/04 05:06:38;;;;;;;8.60;4.63;;;;;;;12.71;100.00;101209.03;4936986;29;20303;-76
2022/05/04 05:09:24;;;;;;;8.98;4.90;;;;;;;12.90;100.00;101206.91;4951345;29;20042;-77
2022/05/04 05:12:10;;;;;;;8.90;4.93;;;;;;;12.76;100.00;101206.28;4938353;29;20596;-76
2022/05/04 05:18:00;;;;;;;8.23;4.18;;;;;;;12.98;100.00;101200.63;4938423;29;20111;-75
2022/05/04 05:20:46;;;;;;;17.42;14.20;;;;;;;12.99;100.00;101206.75;4938312;29;20024;-77
2022/05/04 05:23:32;;;;;;;9.02;5.47;;;;;;;13.40;100.00;101201.50;4937958;29;20039;-78
2022/05/04 05:26:19;;;;;;;5.97;4.30;;;;;;;13.36;100.00;101199.84;4937705;29;20063;-76
2022/05/04 05:29:05;;;;;;;7.32;4.28;;;;;;;13.21;100.00;101201.03;4937552;29;20023;-76
2022/05/04 05:31:50;;;;;;;6.70;4.32;;;;;;;13.28;100.00;101200.03;4936874;29;20027;-76
2022/05/04 05:34:36;;;;;;;8.15;4.20;;;;;;;13.53;100.00;101201.22;4937374;29;20479;-77
2022/05/04 05:37:22;;;;;;;6.07;4.40;;;;;;;13.76;100.00;101201.59;4936311;29;20365;-77
2022/05/04 05:40:08;;;;;;;4.60;3.90;;;;;;;13.46;100.00;101199.63;4937632;29;20028;-77
2022/05/04 05:42:54;;;;;;;6.55;3.90;;;;;;;13.57;100.00;101199.38;4937236;29;20123;-76
2022/05/04 05:45:40;;;;;;;20.33;13.95;;;;;;;13.64;100.00;101201.88;4938143;29;20032;-77
2022/05/04 05:48:26;;;;;;;15.55;10.52;;;;;;;14.20;100.00;101200.53;4935568;29;20118;-76
2022/05/04 05:51:12;;;;;;;11.38;4.95;;;;;;;14.08;100.00;101198.19;4937500;29;20031;-75
2022/05/04 05:53:58;;;;;;;9.00;4.07;;;;;;;14.08;100.00;101199.06;4938904;29;20023;-75
2022/05/04 05:56:43;;;;;;;9.35;4.20;;;;;;;14.49;100.00;101188.38;4937501;29;20027;-76
2022/05/04 05:59:29;;;;;;;7.70;3.60;;;;;;;14.34;100.00;101198.44;4950239;29;20090;-77
2022/05/04 06:02:15;;;;;;;7.60;3.35;;;;;;;14.49;100.00;101198.06;4936322;29;20171;-76
2022/05/04 06:05:01;;;;;;;5.60;3.50;;;;;;;14.67;100.00;101193.16;4939964;29;20034;-76
2022/05/04 06:07:48;;;;;;;7.53;3.45;;;;;;;14.73;100.00;101200.06;4937127;29;20027;-77
2022/05/04 06:10:34;;;;;;;7.65;4.35;;;;;;;14.78;100.00;101203.44;4937655;29;20054;-77
2022/05/04 06:13:20;;;;;;;9.38;3.10;;;;;;;14.68;100.00;101202.81;4935623;29;20248;-77
2022/05/04 06:16:06;;;;;;;4.07;3.00;;;;;;;14.68;100.00;101207.22;4937050;29;20040;-76
2022/05/04 06:18:51;;;;;;;4.45;3.20;;;;;;;14.98;100.00;101213.47;4935664;29;20027;-76
2022/05/04 06:21:37;;;;;;;5.28;2.83;;;;;;;14.91;100.00;101204.81;4937530;29;20032;-77
2022/05/04 06:24:23;;;;;;;3.97;2.92;;;;;;;15.12;100.00;101221.84;4949426;28;20103;-76
2022/05/04 06:27:09;;;;;;;3.70;2.95;;;;;;;15.45;100.00;101220.91;4937315;29;20058;-78
2022/05/04 06:36:04;;;;;;;5.85;3.40;;;;;;;15.34;100.00;101220.34;4937585;29;20090;-76
2022/05/04 06:38:50;;;;;;;3.88;2.83;;;;;;;15.45;100.00;101218.25;4939415;29;20044;-77
2022/05/04 06:41:36;;;;;;;4.78;2.88;;;;;;;16.01;100.00;101218.28;4940130;29;20023;-77
2022/05/04 06:44:22;;;;;;;8.27;3.15;;;;;;;16.30;100.00;101222.63;4940778;29;20448;-75
2022/05/04 06:47:08;;;;;;;6.82;3.40;;;;;;;16.20;100.00;101218.56;4953170;29;20476;-76
2022/05/04 06:49:54;;;;;;;6.05;3.45;;;;;;;16.51;100.00;101222.81;4940804;29;20024;-77
2022/05/04 06:52:40;;;;;;;5.88;3.60;;;;;;;16.56;100.00;101212.09;4955432;29;20032;-76
2022/05/04 06:55:26;;;;;;;5.85;3.70;;;;;;;17.12;100.00;101219.75;4952758;29;20031;-77
2022/05/04 06:58:12;;;;;;;7.00;5.45;;;;;;;17.06;100.00;101214.69;4940129;29;20036;-76
2022/05/04 07:00:58;;;;;;;4.43;3.65;;;;;;;17.31;100.00;101220.81;4940172;29;20028;-77
2022/05/04 07:03:44;;;;;;;5.10;3.83;;;;;;;17.06;100.00;101217.34;4939739;29;20087;-76
2022/05/04 07:06:30;;;;;;;5.63;3.03;;;;;;;17.25;100.00;101223.69;4940285;29;20084;-76
2022/05/04 07:09:16;;;;;;;3.83;2.65;;;;;;;17.20;99.26;101222.13;4939872;29;20107;-76
2022/05/04 07:12:03;;;;;;;6.00;3.47;;;;;;;17.48;99.58;101225.53;4940466;29;20024;-77
2022/05/04 07:14:56;;;;;;;6.10;3.75;;;;;;;17.93;95.45;101219.28;4940419;29;20135;-78
2022/05/04 07:17:41;;;;;;;5.63;3.13;;;;;;;17.55;94.08;101219.94;4939723;29;20472;-78
2022/05/04 07:20:27;;;;;;;3.90;3.33;;;;;;;17.79;93.48;101220.75;4939474;29;20028;-78
2022/05/04 07:23:13;;;;;;;5.88;2.80;;;;;;;17.64;93.57;101222.22;4940374;29;20036;-77
2022/05/04 07:25:59;;;;;;;5.18;2.80;;;;;;;18.04;92.13;101222.38;4940892;29;20047;-78
2022/05/04 07:28:45;;;;;;;5.03;3.15;;;;;;;17.93;94.62;101221.94;4938686;29;20028;-78
2022/05/04 07:31:34;;;;;;;3.55;2.88;;;;;;;17.66;94.15;101216.88;4939926;29;20020;-79
2022/05/04 07:34:20;;;;;;;10.25;7.13;;;;;;;17.84;95.87;101216.16;4952702;28;20118;-79
2022/05/04 07:37:06;;;;;;;5.55;3.72;;;;;;;18.66;89.53;101220.69;4938448;29;20027;-78
2022/05/04 07:42:56;;;;;;;3.10;2.60;;;;;;;18.42;84.80;101220.88;4940578;29;20027;-79
2022/05/04 07:45:42;;;;;;;4.85;3.00;;;;;;;18.74;85.52;101220.38;4939033;29;20097;-78
2022/05/04 07:48:28;;;;;;;4.13;2.97;;;;;;;19.05;86.60;101226.09;4939965;29;20425;-78
2022/05/04 07:51:14;;;;;;;3.10;2.80;;;;;;;18.87;86.85;101227.75;4940474;29;20330;-80
2022/05/04 07:53:59;;;;;;;7.28;2.75;;;;;;;18.52;86.65;101232.81;4938811;29;20036;-79
2022/05/04 07:56:45;;;;;;;5.95;2.95;;;;;;;19.28;82.80;101231.25;4938582;29;20039;-79
2022/05/04 07:59:34;;;;;;;4.50;2.80;;;;;;;19.53;79.58;101236.34;4939460;29;20023;-80
2022/05/04 08:05:24;;;;;;;2.83;2.63;;;;;;;19.57;79.08;101228.13;4939942;29;20121;-78
2022/05/04 08:08:10;;;;;;;4.63;2.88;;;;;;;19.91;73.08;101241.59;4940346;29;20183;-79
2022/05/04 08:10:56;;;;;;;4.03;2.90;;;;;;;19.75;72.29;101240.59;4939543;29;20450;-77
2022/05/04 08:13:42;;;;;;;3.92;2.90;;;;;;;19.59;71.65;101238.69;4938145;29;20388;-77
2022/05/04 08:16:28;;;;;;;3.42;3.10;;;;;;;20.08;70.15;101243.41;4939164;29;20360;-77
2022/05/04 08:19:14;;;;;;;4.88;2.83;;;;;;;19.93;70.04;101244.19;4938391;29;20039;-77
2022/05/04 08:22:00;;;;;;;5.47;3.08;;;;;;;20.54;70.29;101235.81;4939162;29;20080;-76
2022/05/04 08:24:46;;;;;;;4.57;2.90;;;;;;;20.78;71.80;101239.88;4951456;28;20035;-78
2022/05/04 08:27:32;;;;;;;5.32;2.83;;;;;;;21.00;67.43;101237.03;4938894;29;20027;-77
2022/05/04 08:30:20;;;;;;;8.25;4.10;;;;;;;20.48;68.49;101238.78;4937939;29;20020;-76
2022/05/04 08:33:06;;;;;;;4.82;2.72;;;;;;;20.50;70.46;101246.69;4951579;29;20071;-78
2022/05/04 08:35:52;;;;;;;3.72;3.00;;;;;;;21.21;67.47;101238.56;4951490;29;20073;-79
2022/05/04 08:38:38;;;;;;;5.10;2.92;;;;;;;20.20;71.05;101232.22;4937751;29;20055;-78
2022/05/04 08:41:28;;;;;;;6.78;3.65;;;;;;;20.90;69.34;101225.94;4938576;29;20079;-80
2022/05/04 08:44:14;;;;;;;8.32;3.90;;;;;;;21.14;69.29;101232.69;4938959;29;20042;-79
2022/05/04 08:47:05;;;;;;;4.10;2.65;;;;;;;21.99;64.20;101236.94;4938000;29;20078;-79
2022/05/04 08:49:52;;;;;;;4.05;2.97;;;;;;;21.65;64.86;101234.34;4951527;29;20471;-79
2022/05/04 08:52:44;;;;;;;6.63;3.05;;;;;;;21.47;65.89;101233.59;4939435;29;20087;-79
2022/05/04 08:55:29;;;;;;;3.53;2.95;;;;;;;20.97;68.21;101232.72;4938369;29;20380;-79
2022/05/04 08:58:15;;;;;;;3.40;2.72;;;;;;;20.85;65.66;101228.00;4937744;29;20031;-79
2022/05/04 09:01:02;;;;;;;7.57;3.05;;;;;;;21.32;65.26;101229.06;4937341;29;20031;-79
2022/05/04 09:03:47;;;;;;;4.57;2.83;;;;;;;20.97;64.16;101219.41;4938863;29;20031;-79
2022/05/04 09:06:41;;;;;;;3.40;2.70;;;;;;;21.49;64.52;101233.47;4937525;29;20027;-79
2022/05/04 09:09:33;;;;;;;3.22;2.55;;;;;;;21.49;61.95;101230.81;4951159;29;20032;-79
2022/05/04 09:12:20;;;;;;;3.30;2.80;;;;;;;22.23;60.67;101223.03;4938199;29;20056;-78
2022/05/04 09:15:19;;;;;;;4.60;2.90;;;;;;;21.42;60.95;101221.44;4950653;29;20052;-79
2022/05/04 09:18:05;;;;;;;4.43;2.67;;;;;;;22.10;61.16;101222.03;4951094;29;20023;-78
2022/05/04 09:20:55;;;;;;;5.88;2.60;;;;;;;22.15;57.23;101222.63;4938143;29;20028;-78
2022/05/04 09:23:42;;;;;;;3.75;2.63;;;;;;;21.92;57.87;101214.19;4936530;29;20032;-78
2022/05/04 09:26:27;;;;;;;4.47;2.70;;;;;;;22.31;58.32;101214.59;4938135;29;20031;-79
2022/05/04 09:29:16;;;;;;;4.75;2.40;;;;;;;21.81;57.54;101222.81;4937100;29;20083;-79
2022/05/04 09:32:13;;;;;;;2.92;2.58;;;;;;;22.38;56.20;101214.16;4937120;29;20019;-78
2022/05/04 09:35:02;;;;;;;3.38;2.38;;;;;;;22.53;56.21;101204.41;4937108;29;20039;-79
2022/05/04 09:47:18;;;;;;;3.45;2.55;;;;;;;22.26;55.35;101198.84;4938533;29;20094;-78
2022/05/04 09:50:05;;;;;;;4.38;2.80;;;;;;;22.12;55.38;101196.13;4938211;29;20024;-79
2022/05/04 09:52:52;;;;;;;6.55;2.97;;;;;;;22.76;53.81;101195.91;4936034;29;20051;-79
2022/05/04 09:55:38;;;;;;;4.05;3.08;;;;;;;22.43;54.60;101198.72;4937486;29;20410;-78
2022/05/04 09:58:27;;;;;;;4.95;3.10;;;;;;;22.39;54.64;101193.66;4939517;29;20046;-78
2022/05/04 10:01:13;;;;;;;4.00;2.42;;;;;;;23.13;52.73;101190.03;4950057;29;20039;-79
2022/05/04 10:04:00;;;;;;;5.22;3.00;;;;;;;22.37;52.67;101184.88;4950559;28;20076;-78
2022/05/04 10:06:50;;;;;;;5.15;2.58;;;;;;;22.46;52.92;101182.56;4937515;29;20027;-78
2022/05/04 10:09:36;;;;;;;5.25;3.10;;;;;;;22.80;51.85;101187.63;4937057;29;20436;-79
2022/05/04 10:12:23;;;;;;;22.77;6.57;;;;;;;22.53;53.32;101183.91;4936809;29;20028;-79
2022/05/04 10:15:14;;;;;;;24.73;5.25;;;;;;;22.87;53.18;101188.09;4937466;29;20071;-80
2022/05/04 10:18:26;;;;;;;8.00;5.28;;;;;;;22.37;51.46;101176.84;4936490;29;20027;-79
2022/05/04 10:21:13;;;;;;;6.25;3.38;;;;;;;22.63;48.43;101176.22;4936060;29;20039;-79
2022/05/04 10:24:02;;;;;;;9.63;4.00;;;;;;;23.05;49.79;101177.16;4937115;29;20035;-79
2022/05/04 10:26:47;;;;;;;13.77;3.78;;;;;;;23.12;50.03;101172.28;4936259;29;20035;-79
2022/05/04 10:32:46;;;;;;;4.65;3.05;;;;;;;22.46;50.65;101173.63;4938798;29;20038;-80
2022/05/04 10:35:38;;;;;;;4.75;2.72;;;;;;;22.83;50.31;101178.56;4938000;29;20405;-78
2022/05/04 10:38:33;;;;;;;3.33;2.78;;;;;;;22.65;49.71;101166.28;4937961;29;20027;-80
2022/05/04 10:41:38;;;;;;;4.25;3.00;;;;;;;23.01;49.61;101166.72;4938392;29;20024;-80
2022/05/04 10:44:51;;;;;;;4.57;2.97;;;;;;;23.52;48.52;101163.50;4936427;29;20106;-79
2022/05/04 10:47:40;;;;;;;4.50;3.05;;;;;;;23.01;50.57;101158.72;4936674;29;20035;-79
2022/05/04 10:50:25;;;;;;;6.30;3.25;;;;;;;23.02;49.16;101161.28;4937647;29;20059;-80
2022/05/04 10:53:23;;;;;;;4.03;3.03;;;;;;;23.40;48.84;101162.47;4936900;29;20039;-80
2022/05/04 10:56:15;;;;;;;4.53;2.83;;;;;;;23.15;47.45;101158.72;4936991;29;20376;-79
2022/05/04 10:59:01;;;;;;;4.72;3.17;;;;;;;23.39;46.59;101160.75;4936989;29;20420;-78
2022/05/04 11:01:46;;;;;;;5.57;3.65;;;;;;;23.60;43.33;101146.97;4937423;29;20046;-79
2022/05/04 11:04:34;;;;;;;4.65;3.08;;;;;;;22.96;44.05;101151.00;4937199;29;20036;-80
2022/05/04 11:07:28;;;;;;;9.30;6.13;;;;;;;23.67;42.82;101146.50;4936944;29;20070;-79
2022/05/04 11:10:15;;;;;;;5.13;2.70;;;;;;;23.23;42.63;101154.63;4937709;29;20079;-78
2022/05/04 11:13:06;;;;;;;7.32;2.65;;;;;;;23.16;42.43;101150.59;4936303;29;20380;-79
2022/05/04 11:15:57;;;;;;;4.35;2.90;;;;;;;23.48;42.80;101144.09;4936003;29;20023;-79
2022/05/04 11:18:43;;;;;;;5.65;3.15;;;;;;;24.17;42.94;101145.84;4936463;29;20346;-79
2022/05/04 11:21:30;;;;;;;7.57;3.28;;;;;;;23.59;42.93;101140.78;4949254;29;20321;-80
2022/05/04 11:24:17;;;;;;;7.47;3.55;;;;;;;24.30;42.70;101134.22;4949091;28;20493;-78
2022/05/04 11:27:03;;;;;;;4.45;3.20;;;;;;;23.86;43.93;101140.78;4939408;29;20074;-80
2022/05/04 11:29:52;;;;;;;4.85;2.78;;;;;;;23.50;43.74;101136.00;4941437;29;20071;-79
2022/05/04 11:32:39;;;;;;;19.23;15.05;;;;;;;24.22;43.15;101138.41;4939608;29;20472;-78
2022/05/04 11:35:26;;;;;;;3.45;3.00;;;;;;;24.32;42.53;101140.34;4940083;29;20079;-79
2022/05/04 11:38:22;;;;;;;5.53;3.05;;;;;;;24.17;44.32;101137.81;4952684;29;20066;-80
2022/05/04 11:41:09;;;;;;;5.40;3.03;;;;;;;24.56;43.79;101133.31;4940437;29;20050;-79
2022/05/04 11:43:58;;;;;;;4.57;2.65;;;;;;;23.93;43.22;101126.94;4938567;29;20365;-75
2022/05/04 11:46:45;;;;;;;4.00;2.70;;;;;;;23.56;42.89;101130.25;4939250;29;20045;-79
2022/05/04 11:49:34;;;;;;;3.65;2.97;;;;;;;23.48;42.51;101129.88;4938202;29;20031;-79
2022/05/04 11:52:22;;;;;;;4.93;2.92;;;;;;;23.66;42.58;101126.00;4939829;29;20167;-78
2022/05/04 11:55:09;;;;;;;6.30;3.08;;;;;;;23.65;41.36;101126.09;4953483;29;20035;-79
2022/05/04 11:57:58;;;;;;;3.85;2.97;;;;;;;23.75;40.68;101124.56;4940217;29;20110;-79
2022/05/04 12:00:44;;;;;;;3.50;2.80;;;;;;;23.29;40.56;101122.19;4939188;29;20326;-79
2022/05/04 12:03:32;;;;;;;3.90;2.70;;;;;;;24.20;39.49;101119.75;4940317;29;20035;-81
2022/05/04 12:06:19;;;;;;;4.80;2.85;;;;;;;24.44;39.06;101117.22;4942302;29;20032;-78
2022/05/04 12:09:05;;;;;;;5.50;3.50;;;;;;;24.47;38.77;101117.00;4942689;29;20357;-78
2022/05/04 12:11:52;;;;;;;3.40;2.70;;;;;;;24.50;37.55;101116.78;4943522;29;20118;-79
2022/05/04 12:14:37;;;;;;;7.35;2.75;;;;;;;24.54;36.96;101126.31;4941821;28;20056;-79
2022/05/04 12:17:26;;;;;;;5.65;2.72;;;;;;;24.39;38.08;101122.03;4952317;29;20031;-77
2022/05/04 12:20:12;;;;;;;7.28;2.90;;;;;;;24.43;38.57;101120.88;4957423;29;20034;-79
2022/05/04 12:22:58;;;;;;;4.40;2.60;;;;;;;24.91;36.34;101115.66;4951178;29;20126;-80
2022/05/04 12:25:44;;;;;;;3.95;2.60;;;;;;;23.82;36.69;101116.03;4939172;29;20520;-79
2022/05/04 12:28:34;;;;;;;5.82;2.80;;;;;;;24.43;36.70;101112.81;4937916;29;20035;-80
2022/05/04 12:34:25;;;;;;;4.45;3.10;;;;;;;24.44;37.10;101110.06;4939826;29;20051;-79
2022/05/04 12:37:12;;;;;;;10.45;5.95;;;;;;;24.26;37.68;101111.28;4936593;29;20111;-79
2022/05/04 12:40:00;;;;;;;4.50;3.08;;;;;;;23.84;38.59;101110.59;4938816;29;20043;-79
2022/05/04 12:42:46;;;;;;;6.78;3.20;;;;;;;24.12;39.10;101113.19;4938905;29;20023;-80
2022/05/04 12:45:36;;;;;;;3.65;2.60;;;;;;;24.42;36.79;101098.56;4939011;29;20043;-80
2022/05/04 12:48:25;;;;;;;11.13;5.68;;;;;;;24.13;37.96;101112.22;4951060;29;20039;-80
2022/05/04 12:51:14;;;;;;;6.25;4.70;;;;;;;24.56;36.58;101105.66;4937358;29;20038;-80
2022/05/04 12:54:00;;;;;;;3.72;2.78;;;;;;;24.74;36.35;101110.63;4938248;29;20456;-80
2022/05/04 12:56:49;;;;;;;3.42;2.40;;;;;;;25.41;35.62;101109.41;4941555;29;20429;-79
2022/05/04 12:59:34;;;;;;;4.53;2.90;;;;;;;25.01;35.03;101110.50;4940551;29;20063;-79
2022/05/04 13:02:23;;;;;;;7.70;2.70;;;;;;;24.79;34.89;101110.31;4938330;29;20031;-79
2022/05/04 13:05:10;;;;;;;7.30;3.03;;;;;;;24.85;35.08;101104.50;4938884;29;20027;-80
2022/05/04 13:07:55;;;;;;;3.60;2.80;;;;;;;24.59;35.38;101113.50;4941649;29;20028;-76
2022/05/04 13:10:41;;;;;;;5.22;2.70;;;;;;;24.47;35.92;101109.81;4953165;29;20019;-78
2022/05/04 13:13:27;;;;;;;3.55;3.05;;;;;;;24.86;36.37;101106.22;4942045;29;20071;-80
2022/05/04 13:16:13;;;;;;;6.60;3.00;;;;;;;24.95;36.53;101109.13;4941830;29;20067;-80
2022/05/04 13:19:00;;;;;;;6.53;2.50;;;;;;;24.65;36.19;101105.06;4938057;29;20179;-79
2022/05/04 13:21:46;;;;;;;8.23;5.60;;;;;;;25.24;35.93;101115.09;4951418;29;20027;-79
2022/05/04 13:24:31;;;;;;;5.85;4.53;;;;;;;25.16;35.62;101107.59;4950788;28;20027;-79
2022/05/04 13:27:17;;;;;;;7.20;3.28;;;;;;;25.24;36.21;101107.91;4937248;29;20103;-81